sensor_id;sensor_type;location;lat;lon;timestamp;P1;durP1;ratioP1;P2;durP2;ratioP2
33108;SDS011;19481;51.118;6.940;2023-02-11T00:00:58;21.10;;;11.30;;
33108;SDS011;19481;51.118;6.940;2023-02-11T00:06:02;17.40;;;10.82;;
33108;SDS011;19481;51.118;6.940;2023-02-11T00:11:09;21.88;;;11.07;;
33108;SDS011;19481;51.118;6.940;2023-02-11T00:16:14;22.27;;;11.65;;
33108;SDS011;19481;51.118;6.940;2023-02-11T00:21:19;23.83;;;11.15;;
33108;SDS011;19481;51.118;6.940;2023-02-11T00:26:22;21.95;;;10.77;;
33108;SDS011;19481;51.118;6.940;2023-02-11T00:31:26;23.70;;;11.57;;
33108;SDS011;19481;51.118;6.940;2023-02-11T00:36:29;21.80;;;11.18;;
33108;SDS011;19481;51.118;6.940;2023-02-11T00:41:31;21.77;;;10.82;;
33108;SDS011;19481;51.118;6.940;2023-02-11T00:46:33;23.42;;;11.02;;
33108;SDS011;19481;51.118;6.940;2023-02-11T00:51:36;19.85;;;10.80;;
33108;SDS011;19481;51.118;6.940;2023-02-11T00:56:37;23.13;;;11.55;;
33108;SDS011;19481;51.118;6.940;2023-02-11T01:01:39;20.23;;;10.05;;
33108;SDS011;19481;51.118;6.940;2023-02-11T01:06:42;18.90;;;10.90;;
33108;SDS011;19481;51.118;6.940;2023-02-11T01:11:44;23.83;;;11.15;;
33108;SDS011;19481;51.118;6.940;2023-02-11T01:16:45;20.67;;;10.65;;
33108;SDS011;19481;51.118;6.940;2023-02-11T01:21:48;22.35;;;9.45;;
33108;SDS011;19481;51.118;6.940;2023-02-11T01:26:50;20.67;;;9.70;;
33108;SDS011;19481;51.118;6.940;2023-02-11T01:31:51;21.58;;;10.80;;
33108;SDS011;19481;51.118;6.940;2023-02-11T01:36:56;19.73;;;9.98;;
33108;SDS011;19481;51.118;6.940;2023-02-11T01:41:58;19.50;;;9.57;;
33108;SDS011;19481;51.118;6.940;2023-02-11T01:47:00;18.13;;;9.77;;
33108;SDS011;19481;51.118;6.940;2023-02-11T01:52:06;17.52;;;9.88;;
33108;SDS011;19481;51.118;6.940;2023-02-11T01:57:11;20.25;;;10.70;;
33108;SDS011;19481;51.118;6.940;2023-02-11T02:02:25;22.65;;;10.52;;
33108;SDS011;19481;51.118;6.940;2023-02-11T02:07:33;19.50;;;7.87;;
33108;SDS011;19481;51.118;6.940;2023-02-11T02:12:42;23.15;;;10.57;;
33108;SDS011;19481;51.118;6.940;2023-02-11T02:17:45;18.33;;;9.25;;
33108;SDS011;19481;51.118;6.940;2023-02-11T02:28:35;17.05;;;9.85;;
33108;SDS011;19481;51.118;6.940;2023-02-11T02:34:08;20.75;;;10.00;;
33108;SDS011;19481;51.118;6.940;2023-02-11T02:39:17;18.65;;;10.20;;
33108;SDS011;19481;51.118;6.940;2023-02-11T02:44:22;21.73;;;10.18;;
33108;SDS011;19481;51.118;6.940;2023-02-11T02:49:26;19.70;;;9.65;;
33108;SDS011;19481;51.118;6.940;2023-02-11T02:54:46;16.77;;;10.48;;
33108;SDS011;19481;51.118;6.940;2023-02-11T03:00:18;19.23;;;10.43;;
33108;SDS011;19481;51.118;6.940;2023-02-11T03:05:29;22.10;;;10.18;;
33108;SDS011;19481;51.118;6.940;2023-02-11T03:10:40;20.15;;;10.07;;
33108;SDS011;19481;51.118;6.940;2023-02-11T03:15:45;24.73;;;10.57;;
33108;SDS011;19481;51.118;6.940;2023-02-11T03:20:52;22.10;;;10.07;;
33108;SDS011;19481;51.118;6.940;2023-02-11T03:25:55;23.90;;;10.65;;
33108;SDS011;19481;51.118;6.940;2023-02-11T03:31:02;22.70;;;10.18;;
33108;SDS011;19481;51.118;6.940;2023-02-11T03:36:13;21.17;;;10.85;;
33108;SDS011;19481;51.118;6.940;2023-02-11T03:41:20;20.58;;;10.68;;
33108;SDS011;19481;51.118;6.940;2023-02-11T03:46:26;20.63;;;11.13;;
33108;SDS011;19481;51.118;6.940;2023-02-11T03:51:37;16.95;;;10.32;;
33108;SDS011;19481;51.118;6.940;2023-02-11T03:56:40;24.10;;;10.60;;
33108;SDS011;19481;51.118;6.940;2023-02-11T04:01:49;21.23;;;11.30;;
33108;SDS011;19481;51.118;6.940;2023-02-11T04:06:52;26.67;;;11.63;;
33108;SDS011;19481;51.118;6.940;2023-02-11T04:11:53;22.27;;;11.18;;
33108;SDS011;19481;51.118;6.940;2023-02-11T04:16:55;21.10;;;10.95;;
33108;SDS011;19481;51.118;6.940;2023-02-11T04:21:58;19.60;;;11.32;;
33108;SDS011;19481;51.118;6.940;2023-02-11T04:26:59;19.67;;;11.15;;
33108;SDS011;19481;51.118;6.940;2023-02-11T04:32:01;26.33;;;11.63;;
33108;SDS011;19481;51.118;6.940;2023-02-11T04:37:04;26.25;;;11.98;;
33108;SDS011;19481;51.118;6.940;2023-02-11T04:42:06;21.55;;;10.88;;
33108;SDS011;19481;51.118;6.940;2023-02-11T04:47:07;20.73;;;10.63;;
33108;SDS011;19481;51.118;6.940;2023-02-11T04:52:13;24.85;;;11.27;;
33108;SDS011;19481;51.118;6.940;2023-02-11T04:57:14;31.85;;;10.98;;
33108;SDS011;19481;51.118;6.940;2023-02-11T05:02:16;26.33;;;10.57;;
33108;SDS011;19481;51.118;6.940;2023-02-11T05:07:19;23.00;;;10.45;;
33108;SDS011;19481;51.118;6.940;2023-02-11T05:12:20;22.23;;;10.70;;
33108;SDS011;19481;51.118;6.940;2023-02-11T05:17:22;21.88;;;10.90;;
33108;SDS011;19481;51.118;6.940;2023-02-11T05:22:25;23.75;;;10.38;;
33108;SDS011;19481;51.118;6.940;2023-02-11T05:27:27;23.98;;;9.40;;
33108;SDS011;19481;51.118;6.940;2023-02-11T05:32:28;24.90;;;10.80;;
33108;SDS011;19481;51.118;6.940;2023-02-11T05:37:31;20.48;;;10.60;;
33108;SDS011;19481;51.118;6.940;2023-02-11T05:42:33;24.63;;;10.25;;
33108;SDS011;19481;51.118;6.940;2023-02-11T05:47:35;28.10;;;10.27;;
33108;SDS011;19481;51.118;6.940;2023-02-11T05:52:38;24.63;;;9.38;;
33108;SDS011;19481;51.118;6.940;2023-02-11T05:57:39;20.73;;;10.00;;
33108;SDS011;19481;51.118;6.940;2023-02-11T06:02:41;20.40;;;10.43;;
33108;SDS011;19481;51.118;6.940;2023-02-11T06:07:44;21.02;;;10.15;;
33108;SDS011;19481;51.118;6.940;2023-02-11T06:12:45;28.65;;;11.35;;
33108;SDS011;19481;51.118;6.940;2023-02-11T06:17:47;32.65;;;10.88;;
33108;SDS011;19481;51.118;6.940;2023-02-11T06:22:50;21.73;;;9.70;;
33108;SDS011;19481;51.118;6.940;2023-02-11T06:27:52;23.75;;;11.27;;
33108;SDS011;19481;51.118;6.940;2023-02-11T06:32:53;24.52;;;11.32;;
33108;SDS011;19481;51.118;6.940;2023-02-11T06:37:56;20.50;;;10.85;;
33108;SDS011;19481;51.118;6.940;2023-02-11T06:42:58;21.95;;;10.63;;
33108;SDS011;19481;51.118;6.940;2023-02-11T06:47:59;25.98;;;10.43;;
33108;SDS011;19481;51.118;6.940;2023-02-11T06:53:02;21.35;;;11.02;;
33108;SDS011;19481;51.118;6.940;2023-02-11T06:58:04;29.42;;;12.00;;
33108;SDS011;19481;51.118;6.940;2023-02-11T07:03:06;37.53;;;12.57;;
33108;SDS011;19481;51.118;6.940;2023-02-11T07:08:08;26.88;;;12.70;;
33108;SDS011;19481;51.118;6.940;2023-02-11T07:13:10;25.73;;;12.27;;
33108;SDS011;19481;51.118;6.940;2023-02-11T07:18:12;30.73;;;12.52;;
33108;SDS011;19481;51.118;6.940;2023-02-11T07:23:14;34.78;;;14.13;;
33108;SDS011;19481;51.118;6.940;2023-02-11T07:28:16;31.98;;;15.57;;
33108;SDS011;19481;51.118;6.940;2023-02-11T07:33:18;32.22;;;14.48;;
33108;SDS011;19481;51.118;6.940;2023-02-11T07:38:21;34.22;;;13.55;;
33108;SDS011;19481;51.118;6.940;2023-02-11T07:43:22;43.65;;;14.85;;
33108;SDS011;19481;51.118;6.940;2023-02-11T07:48:24;34.42;;;14.25;;
33108;SDS011;19481;51.118;6.940;2023-02-11T07:53:26;36.88;;;15.43;;
33108;SDS011;19481;51.118;6.940;2023-02-11T07:58:28;38.67;;;14.07;;
33108;SDS011;19481;51.118;6.940;2023-02-11T08:03:30;29.73;;;14.52;;
33108;SDS011;19481;51.118;6.940;2023-02-11T08:08:34;32.03;;;14.38;;
33108;SDS011;19481;51.118;6.940;2023-02-11T08:13:36;31.27;;;13.85;;
33108;SDS011;19481;51.118;6.940;2023-02-11T08:18:38;37.72;;;15.55;;
33108;SDS011;19481;51.118;6.940;2023-02-11T08:23:42;42.03;;;15.90;;
33108;SDS011;19481;51.118;6.940;2023-02-11T08:28:44;43.22;;;15.60;;
33108;SDS011;19481;51.118;6.940;2023-02-11T08:33:47;40.25;;;16.70;;
33108;SDS011;19481;51.118;6.940;2023-02-11T08:38:52;41.15;;;16.33;;
33108;SDS011;19481;51.118;6.940;2023-02-11T08:43:54;41.92;;;16.83;;
33108;SDS011;19481;51.118;6.940;2023-02-11T08:48:56;42.08;;;15.90;;
33108;SDS011;19481;51.118;6.940;2023-02-11T08:53:59;42.42;;;16.38;;
33108;SDS011;19481;51.118;6.940;2023-02-11T08:59:01;45.55;;;17.30;;
33108;SDS011;19481;51.118;6.940;2023-02-11T09:04:03;42.00;;;15.95;;
33108;SDS011;19481;51.118;6.940;2023-02-11T09:09:08;42.25;;;15.65;;
33108;SDS011;19481;51.118;6.940;2023-02-11T09:14:14;45.33;;;15.63;;
33108;SDS011;19481;51.118;6.940;2023-02-11T09:19:17;36.20;;;14.15;;
33108;SDS011;19481;51.118;6.940;2023-02-11T09:24:21;38.88;;;14.63;;
33108;SDS011;19481;51.118;6.940;2023-02-11T09:29:22;40.65;;;15.50;;
33108;SDS011;19481;51.118;6.940;2023-02-11T09:34:24;38.85;;;14.68;;
33108;SDS011;19481;51.118;6.940;2023-02-11T09:39:27;42.70;;;14.20;;
33108;SDS011;19481;51.118;6.940;2023-02-11T09:44:30;32.92;;;12.90;;
33108;SDS011;19481;51.118;6.940;2023-02-11T09:49:35;34.75;;;14.20;;
33108;SDS011;19481;51.118;6.940;2023-02-11T09:54:48;39.60;;;15.20;;
33108;SDS011;19481;51.118;6.940;2023-02-11T09:59:54;37.40;;;13.90;;
33108;SDS011;19481;51.118;6.940;2023-02-11T10:05:04;35.95;;;13.80;;
33108;SDS011;19481;51.118;6.940;2023-02-11T10:10:19;36.85;;;15.57;;
33108;SDS011;19481;51.118;6.940;2023-02-11T10:15:35;34.55;;;15.10;;
33108;SDS011;19481;51.118;6.940;2023-02-11T10:20:47;33.25;;;14.55;;
33108;SDS011;19481;51.118;6.940;2023-02-11T10:25:55;37.17;;;14.90;;
33108;SDS011;19481;51.118;6.940;2023-02-11T10:30:59;33.58;;;14.07;;
33108;SDS011;19481;51.118;6.940;2023-02-11T10:36:03;34.90;;;15.85;;
33108;SDS011;19481;51.118;6.940;2023-02-11T10:41:08;36.25;;;15.40;;
33108;SDS011;19481;51.118;6.940;2023-02-11T10:46:14;33.53;;;14.57;;
33108;SDS011;19481;51.118;6.940;2023-02-11T10:51:19;33.55;;;16.08;;
33108;SDS011;19481;51.118;6.940;2023-02-11T10:56:25;34.53;;;14.98;;
33108;SDS011;19481;51.118;6.940;2023-02-11T11:01:41;37.63;;;14.35;;
33108;SDS011;19481;51.118;6.940;2023-02-11T11:06:46;35.05;;;14.65;;
33108;SDS011;19481;51.118;6.940;2023-02-11T11:11:51;39.72;;;15.70;;
33108;SDS011;19481;51.118;6.940;2023-02-11T11:16:54;37.22;;;15.73;;
33108;SDS011;19481;51.118;6.940;2023-02-11T11:21:55;37.13;;;15.23;;
33108;SDS011;19481;51.118;6.940;2023-02-11T11:26:59;41.30;;;16.55;;
33108;SDS011;19481;51.118;6.940;2023-02-11T11:32:03;33.60;;;14.57;;
33108;SDS011;19481;51.118;6.940;2023-02-11T11:37:12;34.33;;;14.95;;
33108;SDS011;19481;51.118;6.940;2023-02-11T11:42:23;37.90;;;15.35;;
33108;SDS011;19481;51.118;6.940;2023-02-11T11:47:28;38.05;;;15.95;;
33108;SDS011;19481;51.118;6.940;2023-02-11T11:52:38;33.22;;;15.48;;
33108;SDS011;19481;51.118;6.940;2023-02-11T11:57:45;39.10;;;15.57;;
33108;SDS011;19481;51.118;6.940;2023-02-11T12:08:27;36.67;;;14.90;;
33108;SDS011;19481;51.118;6.940;2023-02-11T12:13:41;35.88;;;15.45;;
33108;SDS011;19481;51.118;6.940;2023-02-11T12:19:06;32.00;;;15.75;;
33108;SDS011;19481;51.118;6.940;2023-02-11T12:24:34;34.53;;;14.57;;
33108;SDS011;19481;51.118;6.940;2023-02-11T12:29:54;34.10;;;14.80;;
33108;SDS011;19481;51.118;6.940;2023-02-11T12:35:10;32.15;;;14.93;;
33108;SDS011;19481;51.118;6.940;2023-02-11T12:40:30;33.03;;;14.77;;
33108;SDS011;19481;51.118;6.940;2023-02-11T12:45:51;36.10;;;15.82;;
33108;SDS011;19481;51.118;6.940;2023-02-11T12:51:16;39.03;;;16.10;;
33108;SDS011;19481;51.118;6.940;2023-02-11T12:56:25;32.80;;;14.95;;
33108;SDS011;19481;51.118;6.940;2023-02-11T13:01:34;34.60;;;15.95;;
33108;SDS011;19481;51.118;6.940;2023-02-11T13:06:40;42.53;;;17.10;;
33108;SDS011;19481;51.118;6.940;2023-02-11T13:11:46;40.05;;;16.73;;
33108;SDS011;19481;51.118;6.940;2023-02-11T13:16:53;36.33;;;16.80;;
33108;SDS011;19481;51.118;6.940;2023-02-11T13:22:02;40.95;;;16.85;;
33108;SDS011;19481;51.118;6.940;2023-02-11T13:27:14;41.65;;;17.20;;
33108;SDS011;19481;51.118;6.940;2023-02-11T13:32:26;45.08;;;17.75;;
33108;SDS011;19481;51.118;6.940;2023-02-11T13:37:47;39.38;;;16.40;;
33108;SDS011;19481;51.118;6.940;2023-02-11T13:42:50;42.35;;;18.20;;
33108;SDS011;19481;51.118;6.940;2023-02-11T13:47:56;47.35;;;17.38;;
33108;SDS011;19481;51.118;6.940;2023-02-11T13:53:00;52.15;;;17.63;;
33108;SDS011;19481;51.118;6.940;2023-02-11T13:58:17;40.13;;;16.85;;
33108;SDS011;19481;51.118;6.940;2023-02-11T14:03:37;49.22;;;17.83;;
33108;SDS011;19481;51.118;6.940;2023-02-11T14:08:58;40.15;;;16.55;;
33108;SDS011;19481;51.118;6.940;2023-02-11T14:14:02;38.90;;;17.60;;
33108;SDS011;19481;51.118;6.940;2023-02-11T14:19:26;40.35;;;16.92;;
33108;SDS011;19481;51.118;6.940;2023-02-11T14:24:48;42.97;;;16.67;;
33108;SDS011;19481;51.118;6.940;2023-02-11T14:30:00;42.20;;;16.30;;
33108;SDS011;19481;51.118;6.940;2023-02-11T14:35:30;39.35;;;17.23;;
33108;SDS011;19481;51.118;6.940;2023-02-11T14:40:38;42.55;;;16.52;;
33108;SDS011;19481;51.118;6.940;2023-02-11T14:45:48;42.10;;;16.52;;
33108;SDS011;19481;51.118;6.940;2023-02-11T14:50:56;35.53;;;16.20;;
33108;SDS011;19481;51.118;6.940;2023-02-11T15:01:03;51.88;;;18.30;;
33108;SDS011;19481;51.118;6.940;2023-02-11T15:06:13;41.17;;;16.60;;
33108;SDS011;19481;51.118;6.940;2023-02-11T15:11:20;36.55;;;16.30;;
33108;SDS011;19481;51.118;6.940;2023-02-11T15:16:24;37.92;;;16.50;;
33108;SDS011;19481;51.118;6.940;2023-02-11T15:21:29;46.38;;;17.20;;
33108;SDS011;19481;51.118;6.940;2023-02-11T15:26:33;46.75;;;17.38;;
33108;SDS011;19481;51.118;6.940;2023-02-11T15:31:34;46.03;;;17.00;;
33108;SDS011;19481;51.118;6.940;2023-02-11T15:36:37;36.92;;;16.42;;
33108;SDS011;19481;51.118;6.940;2023-02-11T15:41:39;40.40;;;16.55;;
33108;SDS011;19481;51.118;6.940;2023-02-11T15:46:40;42.45;;;17.15;;
33108;SDS011;19481;51.118;6.940;2023-02-11T15:51:47;50.05;;;19.50;;
33108;SDS011;19481;51.118;6.940;2023-02-11T15:56:49;47.05;;;17.52;;
33108;SDS011;19481;51.118;6.940;2023-02-11T16:01:54;41.90;;;17.45;;
33108;SDS011;19481;51.118;6.940;2023-02-11T16:06:59;37.17;;;15.90;;
33108;SDS011;19481;51.118;6.940;2023-02-11T16:12:01;43.28;;;18.55;;
33108;SDS011;19481;51.118;6.940;2023-02-11T16:17:06;42.22;;;17.33;;
33108;SDS011;19481;51.118;6.940;2023-02-11T16:22:14;39.70;;;17.40;;
33108;SDS011;19481;51.118;6.940;2023-02-11T16:27:19;42.45;;;17.20;;
33108;SDS011;19481;51.118;6.940;2023-02-11T16:32:23;43.03;;;17.15;;
33108;SDS011;19481;51.118;6.940;2023-02-11T16:37:27;48.83;;;18.52;;
33108;SDS011;19481;51.118;6.940;2023-02-11T16:42:29;42.50;;;17.50;;
33108;SDS011;19481;51.118;6.940;2023-02-11T16:47:30;41.28;;;17.95;;
33108;SDS011;19481;51.118;6.940;2023-02-11T16:52:36;39.35;;;16.80;;
33108;SDS011;19481;51.118;6.940;2023-02-11T16:57:37;39.22;;;16.63;;
33108;SDS011;19481;51.118;6.940;2023-02-11T17:02:39;43.85;;;17.88;;
33108;SDS011;19481;51.118;6.940;2023-02-11T17:07:42;48.00;;;18.63;;
33108;SDS011;19481;51.118;6.940;2023-02-11T17:12:44;43.50;;;18.40;;
33108;SDS011;19481;51.118;6.940;2023-02-11T17:17:46;41.28;;;17.38;;
33108;SDS011;19481;51.118;6.940;2023-02-11T17:22:50;43.15;;;17.23;;
33108;SDS011;19481;51.118;6.940;2023-02-11T17:27:51;52.25;;;19.10;;
33108;SDS011;19481;51.118;6.940;2023-02-11T17:32:53;48.45;;;18.33;;
33108;SDS011;19481;51.118;6.940;2023-02-11T17:37:56;45.00;;;17.35;;
33108;SDS011;19481;51.118;6.940;2023-02-11T17:42:58;40.50;;;17.45;;
33108;SDS011;19481;51.118;6.940;2023-02-11T17:47:59;44.00;;;18.95;;
33108;SDS011;19481;51.118;6.940;2023-02-11T17:53:03;43.83;;;17.65;;
33108;SDS011;19481;51.118;6.940;2023-02-11T17:58:05;53.70;;;18.85;;
33108;SDS011;19481;51.118;6.940;2023-02-11T18:03:06;43.22;;;18.48;;
33108;SDS011;19481;51.118;6.940;2023-02-11T18:08:09;45.08;;;19.08;;
33108;SDS011;19481;51.118;6.940;2023-02-11T18:13:11;43.95;;;18.08;;
33108;SDS011;19481;51.118;6.940;2023-02-11T18:18:13;44.70;;;19.10;;
33108;SDS011;19481;51.118;6.940;2023-02-11T18:23:16;50.45;;;19.30;;
33108;SDS011;19481;51.118;6.940;2023-02-11T18:28:17;38.90;;;18.75;;
33108;SDS011;19481;51.118;6.940;2023-02-11T18:33:19;47.28;;;18.95;;
33108;SDS011;19481;51.118;6.940;2023-02-11T18:38:22;49.78;;;21.05;;
33108;SDS011;19481;51.118;6.940;2023-02-11T18:43:24;47.50;;;19.58;;
33108;SDS011;19481;51.118;6.940;2023-02-11T18:48:30;45.90;;;19.92;;
33108;SDS011;19481;51.118;6.940;2023-02-11T18:53:33;45.35;;;19.88;;
33108;SDS011;19481;51.118;6.940;2023-02-11T18:58:35;44.70;;;19.65;;
33108;SDS011;19481;51.118;6.940;2023-02-11T19:03:37;46.65;;;20.40;;
33108;SDS011;19481;51.118;6.940;2023-02-11T19:08:40;47.85;;;20.00;;
33108;SDS011;19481;51.118;6.940;2023-02-11T19:13:42;49.13;;;20.05;;
33108;SDS011;19481;51.118;6.940;2023-02-11T19:18:43;45.70;;;20.85;;
33108;SDS011;19481;51.118;6.940;2023-02-11T19:23:46;49.00;;;19.05;;
33108;SDS011;19481;51.118;6.940;2023-02-11T19:28:48;44.65;;;17.77;;
33108;SDS011;19481;51.118;6.940;2023-02-11T19:33:49;45.28;;;18.85;;
33108;SDS011;19481;51.118;6.940;2023-02-11T19:38:52;44.92;;;16.98;;
33108;SDS011;19481;51.118;6.940;2023-02-11T19:43:54;44.10;;;18.77;;
33108;SDS011;19481;51.118;6.940;2023-02-11T19:48:57;44.00;;;19.27;;
33108;SDS011;19481;51.118;6.940;2023-02-11T19:54:01;40.20;;;18.40;;
33108;SDS011;19481;51.118;6.940;2023-02-11T19:59:03;42.90;;;18.50;;
33108;SDS011;19481;51.118;6.940;2023-02-11T20:04:07;45.65;;;19.20;;
33108;SDS011;19481;51.118;6.940;2023-02-11T20:09:12;42.90;;;18.83;;
33108;SDS011;19481;51.118;6.940;2023-02-11T20:14:14;42.45;;;18.50;;
33108;SDS011;19481;51.118;6.940;2023-02-11T20:19:16;44.53;;;17.80;;
33108;SDS011;19481;51.118;6.940;2023-02-11T20:24:21;41.83;;;18.40;;
33108;SDS011;19481;51.118;6.940;2023-02-11T20:29:24;48.70;;;19.52;;
33108;SDS011;19481;51.118;6.940;2023-02-11T20:34:26;45.20;;;19.83;;
33108;SDS011;19481;51.118;6.940;2023-02-11T20:39:29;43.58;;;17.95;;
33108;SDS011;19481;51.118;6.940;2023-02-11T20:44:31;47.90;;;18.90;;
33108;SDS011;19481;51.118;6.940;2023-02-11T20:49:35;46.90;;;20.73;;
33108;SDS011;19481;51.118;6.940;2023-02-11T20:54:38;50.22;;;20.77;;
33108;SDS011;19481;51.118;6.940;2023-02-11T20:59:40;46.20;;;20.10;;
33108;SDS011;19481;51.118;6.940;2023-02-11T21:04:41;51.20;;;22.05;;
33108;SDS011;19481;51.118;6.940;2023-02-11T21:09:44;56.42;;;22.00;;
33108;SDS011;19481;51.118;6.940;2023-02-11T21:14:46;50.97;;;21.35;;
33108;SDS011;19481;51.118;6.940;2023-02-11T21:19:48;49.95;;;21.67;;
33108;SDS011;19481;51.118;6.940;2023-02-11T21:24:51;52.65;;;22.17;;
33108;SDS011;19481;51.118;6.940;2023-02-11T21:29:53;56.20;;;20.73;;
33108;SDS011;19481;51.118;6.940;2023-02-11T21:34:54;48.10;;;20.10;;
33108;SDS011;19481;51.118;6.940;2023-02-11T21:39:57;45.45;;;19.90;;
33108;SDS011;19481;51.118;6.940;2023-02-11T21:44:59;49.05;;;20.52;;
33108;SDS011;19481;51.118;6.940;2023-02-11T21:50:01;46.03;;;19.63;;
33108;SDS011;19481;51.118;6.940;2023-02-11T21:55:04;46.83;;;20.00;;
33108;SDS011;19481;51.118;6.940;2023-02-11T22:00:06;46.97;;;19.33;;
33108;SDS011;19481;51.118;6.940;2023-02-11T22:05:09;46.28;;;19.98;;
33108;SDS011;19481;51.118;6.940;2023-02-11T22:10:12;45.90;;;21.13;;
33108;SDS011;19481;51.118;6.940;2023-02-11T22:15:14;51.25;;;19.40;;
33108;SDS011;19481;51.118;6.940;2023-02-11T22:20:16;43.47;;;17.58;;
33108;SDS011;19481;51.118;6.940;2023-02-11T22:25:19;45.70;;;19.90;;
33108;SDS011;19481;51.118;6.940;2023-02-11T22:30:20;47.63;;;20.45;;
33108;SDS011;19481;51.118;6.940;2023-02-11T22:35:22;47.25;;;21.75;;
33108;SDS011;19481;51.118;6.940;2023-02-11T22:40:25;45.95;;;19.88;;
33108;SDS011;19481;51.118;6.940;2023-02-11T22:45:26;45.67;;;19.48;;
33108;SDS011;19481;51.118;6.940;2023-02-11T22:50:28;47.70;;;19.73;;
33108;SDS011;19481;51.118;6.940;2023-02-11T22:55:31;43.60;;;19.38;;
33108;SDS011;19481;51.118;6.940;2023-02-11T23:00:37;48.95;;;19.23;;
33108;SDS011;19481;51.118;6.940;2023-02-11T23:05:40;42.38;;;18.90;;
33108;SDS011;19481;51.118;6.940;2023-02-11T23:10:43;43.75;;;19.67;;
33108;SDS011;19481;51.118;6.940;2023-02-11T23:15:45;47.72;;;19.10;;
33108;SDS011;19481;51.118;6.940;2023-02-11T23:20:47;48.20;;;20.10;;
33108;SDS011;19481;51.118;6.940;2023-02-11T23:25:50;46.92;;;19.48;;
33108;SDS011;19481;51.118;6.940;2023-02-11T23:30:51;48.13;;;19.48;;
33108;SDS011;19481;51.118;6.940;2023-02-11T23:35:53;47.95;;;19.65;;
33108;SDS011;19481;51.118;6.940;2023-02-11T23:40:56;44.60;;;19.52;;
33108;SDS011;19481;51.118;6.940;2023-02-11T23:45:58;51.67;;;20.27;;
33108;SDS011;19481;51.118;6.940;2023-02-11T23:50:59;53.45;;;21.45;;
33108;SDS011;19481;51.118;6.940;2023-02-11T23:56:06;49.40;;;20.23;;
